createdAt,value
2017-11-03T00:01:44.749Z,18.20
2017-11-03T00:04:12.330Z,19.87
2017-11-03T00:06:39.911Z,23.55
2017-11-03T00:09:08.282Z,14.90
2017-11-03T00:11:36.639Z,18.65
2017-11-03T00:14:04.223Z,18.00
2017-11-03T00:16:31.795Z,20.00
2017-11-03T00:19:00.356Z,20.45
2017-11-03T00:21:27.951Z,17.42
2017-11-03T00:23:56.293Z,16.73
2017-11-03T00:26:23.895Z,16.40
2017-11-03T00:28:51.475Z,21.02
2017-11-03T00:31:19.037Z,17.90
2017-11-03T00:33:46.617Z,21.15
2017-11-03T00:36:14.181Z,24.77
2017-11-03T00:38:41.782Z,17.37
2017-11-03T00:41:10.175Z,17.40
2017-11-03T00:43:37.773Z,18.67
2017-11-03T00:46:05.438Z,19.70
2017-11-03T00:48:33.079Z,21.20
2017-11-03T00:51:00.700Z,23.45
2017-11-03T00:53:28.274Z,16.08
2017-11-03T00:55:55.819Z,19.40
2017-11-03T00:58:23.370Z,17.15
2017-11-03T01:00:50.946Z,20.98
2017-11-03T01:03:19.277Z,23.70
2017-11-03T01:05:46.862Z,17.87
2017-11-03T01:08:14.407Z,20.08
2017-11-03T01:10:41.990Z,16.20
2017-11-03T01:13:09.541Z,19.33
2017-11-03T01:15:37.060Z,17.77
2017-11-03T01:18:05.392Z,16.95
2017-11-03T01:20:32.933Z,21.35
2017-11-03T01:23:00.479Z,19.48
2017-11-03T01:25:28.013Z,22.85
2017-11-03T01:27:56.305Z,20.40
2017-11-03T01:30:23.806Z,16.23
2017-11-03T01:32:51.312Z,20.73
2017-11-03T01:35:19.596Z,13.52
2017-11-03T01:37:47.858Z,19.58
2017-11-03T01:40:16.389Z,13.68
2017-11-03T01:42:43.917Z,22.85
2017-11-03T01:45:11.484Z,13.27
2017-11-03T01:47:39.025Z,16.45
2017-11-03T01:50:07.305Z,18.25
2017-11-03T01:52:35.617Z,20.17
2017-11-03T01:55:03.133Z,19.70
2017-11-03T01:57:30.665Z,17.87
2017-11-03T01:59:58.168Z,18.98
2017-11-03T02:02:26.497Z,18.20
2017-11-03T02:04:54.002Z,20.33
2017-11-03T02:07:21.537Z,18.52
2017-11-03T02:09:49.034Z,22.52
2017-11-03T02:12:17.313Z,17.60
2017-11-03T02:14:44.878Z,22.15
2017-11-03T02:17:12.395Z,16.17
2017-11-03T02:19:39.951Z,22.15
2017-11-03T02:22:07.476Z,21.05
2017-11-03T02:24:35.003Z,20.15
2017-11-03T02:27:03.264Z,20.00
2017-11-03T02:29:30.786Z,26.12
2017-11-03T02:31:58.300Z,24.02
2017-11-03T02:34:26.578Z,20.17
2017-11-03T02:36:54.888Z,17.45
2017-11-03T02:39:22.406Z,20.00
2017-11-03T02:41:50.701Z,18.80
2017-11-03T02:44:18.224Z,20.48
2017-11-03T02:46:45.801Z,21.92
2017-11-03T02:49:13.386Z,17.75
2017-11-03T02:51:40.946Z,17.27
2017-11-03T02:54:08.470Z,23.05
2017-11-03T02:56:35.973Z,18.58
2017-11-03T02:59:03.899Z,20.90
2017-11-03T03:01:32.190Z,23.10
2017-11-03T03:04:00.505Z,17.45
2017-11-03T03:06:28.070Z,22.65
2017-11-03T03:08:55.630Z,20.00
2017-11-03T03:11:23.153Z,22.60
2017-11-03T03:13:51.544Z,17.77
2017-11-03T03:16:19.069Z,15.77
2017-11-03T03:18:46.590Z,18.77
2017-11-03T03:21:14.174Z,19.33
2017-11-03T03:23:41.745Z,17.23
2017-11-03T03:26:09.367Z,16.17
2017-11-03T03:28:36.951Z,21.92
2017-11-03T03:31:04.570Z,20.92
2017-11-03T03:33:32.147Z,20.15
2017-11-03T03:35:59.737Z,20.27
2017-11-03T03:38:27.299Z,26.15
2017-11-03T03:40:54.887Z,23.85
2017-11-03T03:43:23.270Z,17.05
2017-11-03T03:45:51.622Z,20.62
2017-11-03T03:48:19.224Z,24.52
2017-11-03T03:50:46.819Z,23.95
2017-11-03T03:53:14.371Z,20.00
2017-11-03T03:55:41.944Z,23.35
2017-11-03T03:58:09.490Z,26.02
2017-11-03T04:00:37.082Z,22.87
2017-11-03T04:03:04.652Z,26.15
2017-11-03T04:05:32.262Z,27.77
2017-11-03T04:07:59.841Z,23.25
2017-11-03T04:10:27.431Z,21.87
2017-11-03T04:12:54.970Z,24.75
2017-11-03T04:15:22.644Z,25.73
2017-11-03T04:17:50.203Z,25.83
2017-11-03T04:20:17.729Z,20.75
2017-11-03T04:22:45.272Z,22.15
2017-11-03T04:25:13.542Z,22.17
2017-11-03T04:27:46.004Z,26.12
2017-11-03T04:33:12.532Z,19.65
2017-11-03T04:35:41.295Z,23.58
2017-11-03T04:47:06.082Z,20.45
2017-11-03T04:49:35.013Z,22.37
2017-11-03T04:52:04.659Z,17.85
2017-11-03T04:54:34.134Z,21.70
2017-11-03T04:57:01.770Z,23.25
2017-11-03T04:59:29.671Z,20.40
2017-11-03T05:02:07.822Z,19.70
2017-11-03T05:07:28.214Z,24.92
2017-11-03T05:09:55.823Z,21.00
2017-11-03T05:12:23.419Z,26.65
2017-11-03T05:14:55.814Z,27.27
2017-11-03T05:20:06.674Z,23.73
2017-11-03T05:22:34.992Z,21.35
2017-11-03T05:25:02.529Z,24.77
2017-11-03T05:27:30.058Z,20.58
2017-11-03T05:29:58.428Z,23.35
2017-11-03T05:32:25.978Z,27.10
2017-11-03T05:47:21.531Z,25.40
2017-11-03T05:49:49.137Z,30.35
2017-11-03T05:52:16.655Z,29.27
2017-11-03T05:54:44.937Z,26.98
2017-11-03T05:57:12.539Z,25.10
2017-11-03T05:59:40.089Z,24.87
2017-11-03T06:02:07.705Z,30.70
2017-11-03T06:04:36.024Z,33.75
2017-11-03T06:07:03.651Z,29.60
2017-11-03T06:09:31.973Z,24.50
2017-11-03T06:11:59.565Z,28.02
2017-11-03T06:14:27.116Z,27.85
2017-11-03T06:16:54.692Z,23.85
2017-11-03T06:19:23.025Z,26.52
2017-11-03T06:21:50.612Z,27.37
2017-11-03T06:24:19.078Z,28.65
2017-11-03T06:26:46.863Z,30.20
2017-11-03T06:29:14.474Z,27.45
2017-11-03T06:31:46.047Z,26.37
2017-11-03T06:34:13.641Z,31.85
2017-11-03T06:36:41.218Z,21.55
2017-11-03T06:39:08.744Z,32.38
2017-11-03T06:41:36.338Z,29.58
2017-11-03T06:44:03.959Z,30.77
2017-11-03T06:46:31.562Z,27.17
2017-11-03T06:48:59.095Z,24.85
2017-11-03T06:51:26.663Z,24.25
2017-11-03T06:53:54.206Z,25.02
2017-11-03T06:56:21.794Z,25.20
2017-11-03T06:58:49.369Z,23.98
2017-11-03T07:01:17.067Z,23.98
2017-11-03T07:03:53.423Z,28.83
2017-11-03T07:09:13.973Z,29.00
2017-11-03T07:11:41.514Z,33.35
2017-11-03T07:14:09.088Z,30.83
2017-11-03T07:16:36.609Z,27.70
2017-11-03T07:19:04.158Z,27.25
2017-11-03T07:21:31.898Z,26.37
2017-11-03T07:23:59.453Z,27.58
2017-11-03T07:26:27.786Z,27.08
2017-11-03T07:28:55.342Z,30.60
2017-11-03T07:31:22.937Z,30.35
2017-11-03T07:34:05.352Z,30.27
2017-11-03T07:36:32.932Z,28.62
2017-11-03T07:39:00.466Z,34.17
2017-11-03T07:41:28.017Z,30.88
2017-11-03T07:43:55.626Z,34.78
2017-11-03T07:46:23.178Z,32.33
2017-11-03T07:48:50.725Z,30.67
2017-11-03T07:51:18.270Z,29.08
2017-11-03T07:53:46.706Z,28.40
2017-11-03T07:56:14.290Z,29.27
2017-11-03T07:58:41.930Z,28.92
2017-11-03T08:01:12.811Z,32.63
2017-11-03T08:03:40.370Z,30.33
2017-11-03T08:06:08.697Z,28.05
2017-11-03T08:08:36.282Z,30.00
2017-11-03T08:11:03.849Z,31.80
2017-11-03T08:13:31.383Z,32.47
2017-11-03T08:15:58.986Z,35.28
2017-11-03T08:18:28.645Z,40.50
2017-11-03T08:20:56.199Z,25.02
2017-11-03T08:23:23.771Z,41.78
2017-11-03T08:25:51.315Z,35.72
2017-11-03T08:28:18.873Z,29.33
2017-11-03T08:30:46.422Z,36.60
2017-11-03T08:33:14.749Z,34.53
2017-11-03T08:35:42.278Z,40.28
2017-11-03T08:38:09.852Z,34.50
2017-11-03T08:40:37.468Z,50.92
2017-11-03T08:43:05.021Z,38.60
2017-11-03T08:45:32.655Z,38.72
2017-11-03T08:48:00.172Z,37.10
2017-11-03T08:50:27.723Z,40.38
2017-11-03T08:52:55.256Z,35.85
2017-11-03T08:55:23.092Z,34.80
2017-11-03T08:57:50.681Z,34.67
2017-11-03T09:00:18.325Z,33.45
2017-11-03T09:02:46.043Z,33.65
2017-11-03T09:05:14.518Z,35.95
2017-11-03T09:07:42.203Z,36.42
2017-11-03T09:15:24.425Z,31.27
2017-11-03T09:17:52.110Z,30.83
2017-11-03T09:20:22.648Z,33.58
2017-11-03T09:22:51.191Z,37.40
2017-11-03T09:25:18.779Z,34.40
2017-11-03T09:27:46.402Z,31.40
2017-11-03T09:30:13.948Z,32.17
2017-11-03T09:32:41.518Z,40.88
2017-11-03T09:35:09.073Z,28.23
2017-11-03T09:37:36.637Z,35.70
2017-11-03T09:40:04.242Z,29.60
2017-11-03T09:42:31.787Z,38.33
2017-11-03T09:44:59.457Z,28.48
2017-11-03T09:47:27.016Z,30.35
2017-11-03T09:49:55.403Z,30.95
2017-11-03T09:52:23.735Z,32.65
2017-11-03T09:54:51.286Z,33.97
2017-11-03T09:57:18.833Z,34.63
2017-11-03T09:59:47.165Z,35.22
2017-11-03T10:02:14.773Z,32.37
2017-11-03T10:04:42.320Z,33.27
2017-11-03T10:07:09.910Z,41.17
2017-11-03T10:09:37.472Z,31.65
2017-11-03T10:12:05.045Z,28.60
2017-11-03T10:14:32.630Z,37.85
2017-11-03T10:17:00.195Z,34.40
2017-11-03T10:19:27.750Z,36.77
2017-11-03T10:21:56.076Z,31.02
2017-11-03T10:24:23.656Z,36.42
2017-11-03T10:26:51.194Z,32.92
2017-11-03T10:29:18.791Z,37.75
2017-11-03T10:31:46.331Z,28.38
2017-11-03T10:34:13.893Z,30.77
2017-11-03T10:36:41.494Z,38.55
2017-11-03T10:39:09.800Z,31.35
2017-11-03T10:41:37.347Z,33.53
2017-11-03T10:44:04.920Z,41.65
2017-11-03T10:46:32.480Z,31.17
2017-11-03T10:49:00.035Z,31.13
2017-11-03T10:51:27.567Z,36.23
2017-11-03T10:53:55.067Z,30.10
2017-11-03T10:56:22.606Z,28.40
2017-11-03T10:58:50.118Z,35.07
2017-11-03T11:01:17.646Z,30.10
2017-11-03T11:03:45.236Z,32.27
2017-11-03T11:06:12.766Z,30.10
2017-11-03T11:08:40.300Z,30.10
2017-11-03T11:11:07.820Z,28.13
2017-11-03T11:13:35.377Z,27.07
2017-11-03T11:16:02.887Z,26.93
2017-11-03T11:18:30.429Z,24.77
2017-11-03T11:20:57.974Z,28.53
2017-11-03T11:23:26.261Z,26.50
2017-11-03T11:25:53.797Z,27.20
2017-11-03T11:28:21.331Z,24.20
2017-11-03T11:30:52.342Z,22.95
2017-11-03T11:33:19.902Z,20.05
2017-11-03T11:35:47.506Z,18.20
2017-11-03T11:38:19.828Z,22.23
2017-11-03T11:40:47.609Z,26.83
2017-11-03T11:43:15.251Z,21.93
2017-11-03T11:45:42.816Z,20.97
2017-11-03T11:48:10.366Z,27.07
2017-11-03T11:50:37.881Z,27.37
2017-11-03T11:53:05.433Z,19.50
2017-11-03T11:55:32.980Z,29.43
2017-11-03T11:58:00.504Z,24.60
2017-11-03T12:00:28.040Z,21.07
2017-11-03T12:02:56.318Z,25.70
2017-11-03T12:05:24.621Z,22.03
2017-11-03T12:07:52.135Z,20.97
2017-11-03T12:10:20.464Z,24.00
2017-11-03T12:12:47.993Z,20.10
2017-11-03T12:15:15.569Z,16.97
2017-11-03T12:17:43.140Z,18.30
2017-11-03T12:20:10.685Z,25.80
2017-11-03T12:22:38.246Z,17.50
2017-11-03T12:25:05.760Z,18.53
2017-11-03T12:27:33.294Z,17.57
2017-11-03T12:30:00.822Z,14.83
2017-11-03T12:32:28.354Z,14.27
2017-11-03T12:34:55.944Z,14.30
2017-11-03T12:37:23.468Z,17.30
2017-11-03T12:39:51.042Z,16.83
2017-11-03T12:42:18.574Z,19.40
2017-11-03T12:44:46.134Z,18.10
2017-11-03T12:47:13.649Z,22.43
2017-11-03T12:49:41.185Z,19.23
2017-11-03T12:52:08.729Z,25.10
2017-11-03T12:54:37.019Z,17.07
2017-11-03T12:57:04.560Z,15.97
2017-11-03T12:59:43.179Z,17.97
2017-11-03T13:02:11.380Z,17.70
2017-11-03T13:04:39.133Z,15.93
2017-11-03T13:07:06.905Z,15.18
2017-11-03T13:09:35.297Z,20.98
2017-11-03T13:12:03.009Z,17.00
2017-11-03T13:14:30.664Z,16.90
2017-11-03T13:16:58.248Z,14.60
2017-11-03T13:19:32.335Z,18.13
2017-11-03T13:21:59.969Z,17.23
2017-11-03T13:24:27.526Z,14.45
2017-11-03T13:26:55.846Z,13.47
2017-11-03T13:29:23.437Z,14.55
2017-11-03T13:31:50.997Z,15.40
2017-11-03T13:34:18.596Z,14.20
2017-11-03T13:36:46.168Z,14.67
2017-11-03T13:50:51.281Z,16.10
2017-11-03T13:53:18.814Z,17.27
2017-11-03T13:55:46.389Z,14.80
2017-11-03T13:58:18.504Z,12.87
2017-11-03T14:00:46.108Z,16.23
2017-11-03T14:03:32.968Z,19.70
2017-11-03T14:06:01.460Z,16.30
2017-11-03T14:08:29.959Z,18.27
2017-11-03T14:11:14.894Z,23.93
2017-11-03T14:13:42.587Z,18.95
2017-11-03T14:16:10.264Z,21.03
2017-11-03T14:18:38.214Z,15.33
2017-11-03T14:27:13.501Z,15.50
2017-11-03T14:29:41.959Z,18.60
2017-11-03T14:32:09.732Z,19.83
2017-11-03T14:34:44.557Z,18.27
2017-11-03T14:37:13.197Z,15.00
2017-11-03T14:39:40.887Z,22.10
2017-11-03T14:42:08.622Z,18.67
2017-11-03T14:44:37.409Z,20.20
2017-11-03T14:47:05.061Z,17.33
2017-11-03T14:49:33.482Z,20.15
2017-11-03T14:58:11.780Z,16.67
2017-11-03T15:00:39.402Z,16.70
2017-11-03T15:03:06.973Z,19.48
2017-11-03T15:05:34.574Z,18.70
2017-11-03T15:08:02.167Z,16.70
2017-11-03T15:10:29.743Z,14.95
2017-11-03T15:12:57.290Z,18.25
2017-11-03T15:15:25.595Z,20.20
2017-11-03T15:17:53.906Z,14.95
2017-11-03T15:20:21.473Z,20.85
2017-11-03T15:22:48.993Z,21.17
2017-11-03T15:25:18.227Z,20.70
2017-11-03T15:27:45.753Z,23.55
2017-11-03T15:30:13.281Z,26.23
2017-11-03T15:32:41.566Z,23.52
2017-11-03T15:35:09.871Z,23.98
2017-11-03T15:37:37.410Z,22.80
2017-11-03T15:40:05.094Z,22.40
2017-11-03T15:42:32.675Z,23.05
2017-11-03T15:45:01.165Z,25.83
2017-11-03T15:47:28.751Z,28.02
2017-11-03T15:49:57.065Z,21.20
2017-11-03T15:52:24.657Z,28.38
2017-11-03T15:54:55.513Z,24.80
2017-11-03T15:57:23.110Z,24.08
2017-11-03T15:59:50.659Z,21.92
2017-11-03T16:02:18.998Z,23.17
2017-11-03T16:04:46.634Z,24.52
2017-11-03T16:07:14.200Z,24.55
2017-11-03T16:09:41.821Z,21.08
2017-11-03T16:12:09.382Z,21.87
2017-11-03T16:14:37.706Z,20.65
2017-11-03T16:17:05.299Z,23.90
2017-11-03T16:19:32.864Z,23.50
2017-11-03T16:22:00.441Z,22.92
2017-11-03T16:24:28.771Z,18.08
2017-11-03T16:26:56.808Z,17.92
2017-11-03T16:29:24.352Z,20.55
2017-11-03T16:31:52.683Z,20.00
2017-11-03T16:34:20.264Z,18.60
2017-11-03T16:36:47.834Z,18.27
2017-11-03T16:39:15.369Z,18.62
2017-11-03T16:41:42.932Z,25.70
2017-11-03T16:44:10.502Z,21.70
2017-11-03T16:46:39.338Z,25.85
2017-11-03T16:49:08.746Z,23.25
2017-11-03T16:51:37.085Z,23.25
2017-11-03T16:54:04.637Z,24.63
2017-11-03T16:56:32.184Z,22.35
2017-11-03T16:58:59.774Z,20.40
2017-11-03T17:01:27.322Z,27.48
2017-11-03T17:03:54.897Z,29.73
2017-11-03T17:06:22.445Z,26.35
2017-11-03T17:08:49.995Z,26.08
2017-11-03T17:11:17.613Z,28.98
2017-11-03T17:13:45.144Z,31.85
2017-11-03T17:16:12.698Z,28.27
2017-11-03T17:18:40.242Z,26.65
2017-11-03T17:21:07.794Z,28.58
2017-11-03T17:23:35.338Z,24.30
2017-11-03T17:26:02.904Z,24.75
2017-11-03T17:28:30.472Z,30.98
2017-11-03T17:30:58.063Z,29.80
2017-11-03T17:33:25.594Z,34.38
2017-11-03T17:35:53.869Z,32.42
2017-11-03T17:38:21.420Z,25.95
2017-11-03T17:40:48.944Z,27.90
2017-11-03T17:43:17.272Z,43.75
2017-11-03T17:45:44.838Z,32.08
2017-11-03T17:48:23.936Z,28.08
2017-11-03T17:51:02.587Z,29.25
2017-11-03T17:53:30.149Z,28.85
2017-11-03T17:56:00.358Z,32.42
2017-11-03T17:58:27.993Z,33.70
2017-11-03T18:00:55.655Z,32.35
2017-11-03T18:03:23.376Z,26.80
2017-11-03T18:05:51.063Z,25.40
2017-11-03T18:08:19.741Z,34.17
2017-11-03T18:10:48.466Z,28.70
2017-11-03T18:13:16.064Z,27.67
2017-11-03T18:15:43.749Z,29.55
2017-11-03T18:18:11.733Z,36.58
2017-11-03T18:20:39.338Z,32.45
2017-11-03T18:23:06.874Z,31.55
2017-11-03T18:25:34.409Z,29.23
2017-11-03T18:28:02.723Z,24.30
2017-11-03T18:30:34.078Z,28.80
2017-11-03T18:33:02.373Z,24.80
2017-11-03T18:35:29.891Z,28.98
2017-11-03T18:37:57.485Z,33.80
2017-11-03T18:40:29.741Z,28.30
2017-11-03T18:42:58.045Z,25.42
2017-11-03T18:45:25.555Z,26.50
2017-11-03T18:47:53.426Z,26.77
2017-11-03T18:53:20.855Z,23.02
2017-11-03T18:55:48.393Z,22.37
2017-11-03T18:58:15.900Z,27.92
2017-11-03T19:03:42.558Z,23.60
2017-11-03T19:06:10.149Z,27.80
2017-11-03T19:08:38.469Z,26.40
2017-11-03T19:11:06.040Z,28.45
2017-11-03T19:13:33.553Z,27.80
2017-11-03T19:16:01.852Z,23.35
2017-11-03T19:18:29.370Z,27.95
2017-11-03T19:20:56.933Z,25.40
2017-11-03T19:23:25.254Z,24.75
2017-11-03T19:25:53.558Z,21.65
2017-11-03T19:28:21.131Z,26.42
2017-11-03T19:30:48.661Z,24.98
2017-11-03T19:33:16.197Z,29.20
2017-11-03T19:35:43.725Z,27.62
2017-11-03T19:38:11.277Z,25.80
2017-11-03T19:40:38.795Z,28.95
2017-11-03T19:43:06.305Z,28.33
2017-11-03T19:45:33.846Z,28.60
2017-11-03T19:48:01.346Z,26.40
2017-11-03T19:50:29.633Z,24.85
2017-11-03T19:52:57.148Z,27.08
2017-11-03T19:55:25.414Z,26.77
2017-11-03T19:57:52.974Z,25.37
2017-11-03T20:00:20.511Z,23.73
2017-11-03T20:02:48.082Z,28.85
2017-11-03T20:05:15.620Z,24.35
2017-11-03T20:07:43.891Z,25.45
2017-11-03T20:10:12.382Z,24.40
2017-11-03T20:12:42.385Z,27.48
2017-11-03T20:15:14.125Z,31.45
2017-11-03T20:20:20.344Z,27.92
2017-11-03T20:22:49.098Z,30.27
2017-11-03T20:25:18.406Z,26.17
2017-11-03T20:27:46.716Z,22.55
2017-11-03T20:30:20.808Z,27.83
2017-11-03T20:32:48.629Z,29.85
2017-11-03T20:35:16.210Z,26.83
2017-11-03T20:37:43.748Z,25.02
2017-11-03T20:40:15.063Z,23.92
2017-11-03T20:42:42.584Z,20.85
2017-11-03T20:45:10.109Z,25.02
2017-11-03T20:47:38.453Z,22.62
2017-11-03T20:50:06.066Z,24.20
2017-11-03T20:52:33.585Z,25.75
2017-11-03T20:55:01.122Z,29.60
2017-11-03T20:57:28.668Z,23.75
2017-11-03T20:59:56.290Z,28.52
2017-11-03T21:02:23.876Z,28.40
2017-11-03T21:04:51.454Z,29.23
2017-11-03T21:07:19.123Z,27.10
2017-11-03T21:09:46.698Z,26.37
2017-11-03T21:12:14.252Z,25.85
2017-11-03T21:14:41.799Z,26.75
2017-11-03T21:17:09.347Z,28.38
2017-11-03T21:19:36.971Z,33.40
2017-11-03T21:22:04.507Z,30.92
2017-11-03T21:24:32.098Z,28.73
2017-11-03T21:27:00.442Z,31.70
2017-11-03T21:29:28.035Z,26.35
2017-11-03T21:31:55.590Z,28.17
2017-11-03T21:34:23.170Z,33.28
2017-11-03T21:36:51.641Z,27.45
2017-11-03T21:39:19.183Z,27.20
2017-11-03T21:41:46.731Z,32.92
2017-11-03T21:44:14.312Z,34.58
2017-11-03T21:46:41.902Z,41.92
2017-11-03T21:49:09.514Z,40.90
2017-11-03T21:51:37.110Z,38.00
2017-11-03T21:54:04.684Z,38.28
2017-11-03T21:56:32.306Z,34.60
2017-11-03T21:58:59.863Z,29.98
2017-11-03T22:01:31.079Z,39.45
2017-11-03T22:03:58.634Z,27.98
2017-11-03T22:06:32.098Z,27.17
2017-11-03T22:08:59.639Z,29.95
2017-11-03T22:11:33.078Z,27.87
2017-11-03T22:14:00.621Z,25.67
2017-11-03T22:16:36.002Z,28.55
2017-11-03T22:19:03.575Z,29.77
2017-11-03T22:21:39.209Z,29.25
2017-11-03T22:24:07.515Z,25.05
2017-11-03T22:26:35.068Z,29.48
2017-11-03T22:29:02.654Z,28.83
2017-11-03T22:31:36.434Z,29.87
2017-11-03T22:34:04.189Z,27.98
2017-11-03T22:36:41.503Z,28.77
2017-11-03T22:39:09.077Z,29.63
2017-11-03T22:41:36.618Z,23.85
2017-11-03T22:44:04.203Z,29.50
2017-11-03T22:46:31.783Z,30.62
2017-11-03T22:48:59.370Z,23.77
2017-11-03T22:51:27.597Z,26.70
2017-11-03T22:53:55.143Z,29.87
2017-11-03T22:56:22.728Z,30.85
2017-11-03T22:58:50.275Z,30.05
2017-11-03T23:01:17.826Z,29.55
2017-11-03T23:03:45.366Z,26.25
2017-11-03T23:06:12.935Z,33.90
2017-11-03T23:08:40.536Z,30.90
2017-11-03T23:11:08.088Z,31.65
2017-11-03T23:13:35.651Z,29.70
2017-11-03T23:16:03.206Z,33.40
2017-11-03T23:18:30.823Z,35.90
2017-11-03T23:20:58.392Z,31.20
2017-11-03T23:23:25.931Z,28.15
2017-11-03T23:25:53.471Z,31.62
2017-11-03T23:28:21.051Z,36.08
2017-11-03T23:30:49.627Z,31.25
2017-11-03T23:33:17.192Z,28.00
2017-11-03T23:35:44.727Z,30.62
2017-11-03T23:38:12.475Z,33.35
2017-11-03T23:40:40.021Z,30.55
2017-11-03T23:43:07.607Z,33.97
2017-11-03T23:45:35.163Z,30.95
2017-11-03T23:48:02.705Z,34.17
2017-11-03T23:50:30.262Z,36.70
2017-11-03T23:53:06.015Z,33.65
2017-11-03T23:55:33.601Z,32.28
2017-11-03T23:58:10.742Z,36.85
